Time;durP1;ratioP1;P1;durP2;ratioP2;P2;SDS_P1;SDS_P2;PMS_P1;PMS_P2;Temp;Humidity;BMP_temperature;BMP_pressure;BME280_temperature;BME280_humidity;BME280_pressure;Samples;Min_cycle;Max_cycle;Signal;HPM_P1;HPM_P2
2022/08/19 00:02:22;;;;;;;0.80;0.80;;;24.80;60.00;;;;;;5047713;28;20403;-39
2022/08/19 00:04:52;;;;;;;0.55;0.52;;;24.80;60.10;;;;;;5046817;28;20033;-40
2022/08/19 00:07:20;;;;;;;0.90;0.90;;;24.80;60.00;;;;;;5043793;28;20599;-40
2022/08/19 00:09:46;;;;;;;0.50;0.50;;;24.80;59.90;;;;;;5045432;28;20060;-41
2022/08/19 00:12:12;;;;;;;0.68;0.68;;;24.80;60.00;;;;;;5047852;28;20495;-42
2022/08/19 00:14:38;;;;;;;0.60;0.60;;;24.80;60.00;;;;;;5046658;28;20175;-40
2022/08/19 00:17:04;;;;;;;0.50;0.50;;;24.70;60.80;;;;;;5046075;28;20558;-40
2022/08/19 00:19:30;;;;;;;0.50;0.50;;;24.80;60.10;;;;;;5046465;28;20079;-42
2022/08/19 00:21:56;;;;;;;0.60;0.60;;;24.80;60.00;;;;;;5045513;28;20029;-40
2022/08/19 00:24:22;;;;;;;0.50;0.50;;;24.80;60.00;;;;;;5046432;28;20032;-42
2022/08/19 00:26:48;;;;;;;0.60;0.60;;;24.80;60.00;;;;;;5046133;28;20026;-40
2022/08/19 00:29:15;;;;;;;0.60;0.60;;;24.80;60.10;;;;;;5046924;28;20029;-39
2022/08/19 00:31:42;;;;;;;0.60;0.60;;;24.70;60.00;;;;;;5047481;28;20049;-40
2022/08/19 00:34:08;;;;;;;0.60;0.60;;;24.70;60.00;;;;;;5046408;28;20445;-45
2022/08/19 00:36:34;;;;;;;0.60;0.60;;;24.80;60.10;;;;;;5046892;28;20485;-40
2022/08/19 00:38:59;;;;;;;0.45;0.45;;;24.70;60.00;;;;;;5047886;28;20132;-42
2022/08/19 00:41:25;;;;;;;0.50;0.50;;;24.80;60.50;;;;;;5048504;28;20118;-41
2022/08/19 00:44:04;;;;;;;0.50;0.50;;;24.70;60.00;;;;;;5046681;28;20025;-40
2022/08/19 00:46:32;;;;;;;0.60;0.60;;;24.70;60.10;;;;;;5046289;28;20036;-39
2022/08/19 00:48:57;;;;;;;0.43;0.43;;;24.80;60.10;;;;;;5045424;28;20033;-42
2022/08/19 00:51:26;;;;;;;0.50;0.50;;;24.70;60.00;;;;;;5046144;28;20025;-40
2022/08/19 00:53:52;;;;;;;0.55;0.55;;;24.70;60.00;;;;;;5028141;28;20033;-40
2022/08/19 00:56:18;;;;;;;0.60;0.60;;;24.80;60.10;;;;;;5029903;28;20392;-42
2022/08/19 00:58:44;;;;;;;0.50;0.50;;;24.80;60.10;;;;;;5029049;28;20032;-40
2022/08/19 01:01:09;;;;;;;0.43;0.43;;;24.80;60.10;;;;;;5028872;28;20029;-42
2022/08/19 01:03:35;;;;;;;0.50;0.50;;;24.70;60.00;;;;;;5046053;28;20086;-41
2022/08/19 01:06:00;;;;;;;0.40;0.40;;;24.70;60.80;;;;;;5048984;28;20029;-38
2022/08/19 01:08:26;;;;;;;0.50;0.50;;;24.70;60.10;;;;;;5014054;28;20021;-41
2022/08/19 01:10:56;;;;;;;0.50;0.50;;;24.70;60.00;;;;;;5024813;28;20124;-40
2022/08/19 01:13:24;;;;;;;0.43;0.43;;;24.70;60.00;;;;;;5029872;28;20025;-40
2022/08/19 01:15:54;;;;;;;0.40;0.40;;;24.70;60.10;;;;;;5030842;28;20021;-42
2022/08/19 01:18:19;;;;;;;0.43;0.43;;;24.70;60.00;;;;;;5046802;28;20491;-39
2022/08/19 01:20:45;;;;;;;0.50;0.50;;;24.70;60.10;;;;;;5030059;28;20031;-40
2022/08/19 01:23:11;;;;;;;0.60;0.60;;;24.70;60.10;;;;;;5046382;28;20025;-39
2022/08/19 01:25:51;;;;;;;0.40;0.40;;;24.70;60.10;;;;;;5029870;28;20025;-40
2022/08/19 01:28:25;;;;;;;0.40;0.40;;;24.70;60.10;;;;;;5045304;28;20086;-42
2022/08/19 01:30:51;;;;;;;0.50;0.50;;;24.70;60.10;;;;;;5045044;28;20029;-38
2022/08/19 01:33:17;;;;;;;0.30;0.30;;;24.70;60.20;;;;;;5046660;28;20033;-40
2022/08/19 01:35:42;;;;;;;0.45;0.45;;;24.70;60.20;;;;;;5046784;28;20569;-41
2022/08/19 01:38:17;;;;;;;0.40;0.40;;;24.70;60.10;;;;;;5028439;28;20035;-40
2022/08/19 01:40:42;;;;;;;0.30;0.30;;;24.70;60.20;;;;;;5027745;28;20386;-38
2022/08/19 01:43:08;;;;;;;0.50;0.50;;;24.70;60.10;;;;;;5045109;28;20491;-40
2022/08/19 01:45:34;;;;;;;0.35;0.35;;;24.70;60.20;;;;;;5045249;28;20029;-40
2022/08/19 01:48:01;;;;;;;0.30;0.30;;;24.70;60.20;;;;;;5045148;28;20584;-39
2022/08/19 01:50:27;;;;;;;0.50;0.50;;;24.70;60.10;;;;;;5043971;28;20061;-40
2022/08/19 01:52:52;;;;;;;0.40;0.40;;;24.70;60.20;;;;;;5046621;28;20025;-40
2022/08/19 01:55:19;;;;;;;0.40;0.40;;;24.70;60.20;;;;;;5045395;28;20491;-39
2022/08/19 01:57:49;;;;;;;0.30;0.30;;;24.70;60.20;;;;;;5044283;28;20047;-42
2022/08/19 02:00:16;;;;;;;0.50;0.50;;;24.70;60.30;;;;;;5030254;28;20040;-40
2022/08/19 02:02:42;;;;;;;0.38;0.38;;;24.70;60.30;;;;;;5045699;28;20029;-41
2022/08/19 02:05:08;;;;;;;0.40;0.40;;;24.70;60.30;;;;;;5044979;28;20260;-40
2022/08/19 02:07:34;;;;;;;0.47;0.47;;;24.70;60.40;;;;;;5046025;28;20385;-40
2022/08/19 02:10:08;;;;;;;0.63;0.60;;;24.60;60.40;;;;;;5045573;28;20056;-40
2022/08/19 02:12:35;;;;;;;0.40;0.40;;;24.70;60.40;;;;;;5044141;28;20526;-39
2022/08/19 02:15:01;;;;;;;0.38;0.38;;;24.60;60.40;;;;;;5047070;28;20021;-38
2022/08/19 02:17:28;;;;;;;0.40;0.40;;;24.70;60.40;;;;;;5044437;28;20527;-40
2022/08/19 02:19:54;;;;;;;0.40;0.40;;;24.70;60.40;;;;;;5047003;28;20032;-40
2022/08/19 02:22:20;;;;;;;0.40;0.40;;;24.70;60.40;;;;;;5044642;28;20053;-41
2022/08/19 02:24:47;;;;;;;0.40;0.40;;;24.70;60.50;;;;;;5044100;28;20095;-40
2022/08/19 02:27:13;;;;;;;0.30;0.30;;;24.70;60.50;;;;;;5046573;28;20079;-40
2022/08/19 02:29:39;;;;;;;0.32;0.32;;;24.60;60.50;;;;;;5043867;28;20034;-41
2022/08/19 02:32:04;;;;;;;0.57;0.40;;;24.70;60.50;;;;;;5045030;28;20143;-40
2022/08/19 02:34:30;;;;;;;0.50;0.50;;;24.70;60.60;;;;;;5046217;28;20024;-39
2022/08/19 02:36:56;;;;;;;0.47;0.47;;;24.70;60.50;;;;;;5045292;28;20029;-40
2022/08/19 02:39:21;;;;;;;0.47;0.47;;;24.70;60.60;;;;;;5045096;28;20510;-40
2022/08/19 02:41:47;;;;;;;0.30;0.30;;;24.70;60.60;;;;;;5046599;28;20059;-40
2022/08/19 02:44:12;;;;;;;0.38;0.38;;;24.70;60.60;;;;;;5045304;28;20036;-39
2022/08/19 02:46:38;;;;;;;0.40;0.40;;;24.60;60.60;;;;;;5041555;28;21029;-40
2022/08/19 02:49:05;;;;;;;0.40;0.40;;;24.70;60.70;;;;;;5045598;28;20021;-40
2022/08/19 02:51:34;;;;;;;0.30;0.30;;;24.70;60.60;;;;;;5046085;28;20029;-40
2022/08/19 02:54:00;;;;;;;0.30;0.30;;;24.60;61.40;;;;;;5046022;28;20029;-42
2022/08/19 02:56:27;;;;;;;0.30;0.30;;;24.70;60.70;;;;;;5046672;28;20025;-41
2022/08/19 02:58:53;;;;;;;0.32;0.32;;;24.70;60.70;;;;;;5047474;28;20112;-39
2022/08/19 03:01:23;;;;;;;0.50;0.50;;;24.60;60.70;;;;;;5047310;28;20025;-39
2022/08/19 03:03:49;;;;;;;0.30;0.30;;;24.70;60.80;;;;;;5048342;28;22898;-40
2022/08/19 03:06:15;;;;;;;0.28;0.28;;;24.60;60.80;;;;;;5050319;28;20029;-41
2022/08/19 03:08:42;;;;;;;0.60;0.55;;;24.70;60.80;;;;;;5048247;28;20526;-40
2022/08/19 03:11:16;;;;;;;0.20;0.20;;;24.70;60.80;;;;;;5049842;28;20075;-39
2022/08/19 03:13:43;;;;;;;0.30;0.30;;;24.60;60.90;;;;;;5048769;28;20033;-40
2022/08/19 03:16:08;;;;;;;0.30;0.30;;;24.60;60.90;;;;;;5049505;28;20039;-39
2022/08/19 03:18:34;;;;;;;0.30;0.30;;;24.70;60.90;;;;;;5046099;28;20021;-40
2022/08/19 03:21:00;;;;;;;0.30;0.30;;;24.70;60.90;;;;;;5044030;28;20040;-41
2022/08/19 03:23:25;;;;;;;1.63;0.40;;;24.60;60.90;;;;;;5048956;28;20035;-40
2022/08/19 03:25:52;;;;;;;0.22;0.22;;;24.60;60.90;;;;;;5046193;28;20517;-41
2022/08/19 03:28:19;;;;;;;0.30;0.30;;;24.60;60.90;;;;;;5047327;28;20036;-40
2022/08/19 03:30:58;;;;;;;0.30;0.30;;;24.60;60.90;;;;;;5047529;28;20024;-41
2022/08/19 03:33:23;;;;;;;0.30;0.30;;;24.60;60.90;;;;;;5044123;28;20036;-40
2022/08/19 03:36:03;;;;;;;0.38;0.38;;;24.60;60.90;;;;;;5047479;28;20028;-39
2022/08/19 03:38:29;;;;;;;0.45;0.40;;;24.60;61.00;;;;;;5045002;28;20056;-39
2022/08/19 03:40:54;;;;;;;0.30;0.30;;;24.60;61.00;;;;;;5049209;28;20061;-40
2022/08/19 03:43:20;;;;;;;0.30;0.30;;;24.60;61.00;;;;;;5046690;28;20384;-40
2022/08/19 03:45:46;;;;;;;0.20;0.20;;;24.60;61.00;;;;;;5045282;28;20045;-42
2022/08/19 03:48:12;;;;;;;0.30;0.30;;;24.60;61.10;;;;;;5048086;28;20036;-40
2022/08/19 03:50:40;;;;;;;0.30;0.30;;;24.60;61.10;;;;;;5047543;28;20033;-41
2022/08/19 03:53:08;;;;;;;0.20;0.20;;;24.60;61.10;;;;;;5044982;28;20065;-42
2022/08/19 03:55:38;;;;;;;0.93;0.35;;;24.60;61.10;;;;;;5047481;28;20021;-39
2022/08/19 03:58:04;;;;;;;0.20;0.20;;;24.60;61.10;;;;;;5046930;28;20104;-39
2022/08/19 04:00:29;;;;;;;0.32;0.32;;;24.60;61.10;;;;;;5046543;28;20136;-40
2022/08/19 04:02:55;;;;;;;0.30;0.30;;;24.60;61.20;;;;;;5046319;28;20032;-40
2022/08/19 04:05:20;;;;;;;0.20;0.20;;;24.60;61.20;;;;;;5047354;28;20032;-40
2022/08/19 04:07:46;;;;;;;0.35;0.35;;;24.60;61.20;;;;;;5048940;28;20025;-40
2022/08/19 04:10:11;;;;;;;0.35;0.35;;;24.60;61.20;;;;;;5046542;28;20025;-41
2022/08/19 04:12:37;;;;;;;0.40;0.40;;;24.60;61.10;;;;;;5047607;28;20061;-43
2022/08/19 04:15:05;;;;;;;0.30;0.30;;;24.60;61.10;;;;;;5047517;28;20021;-40
2022/08/19 04:17:31;;;;;;;0.20;0.20;;;24.60;61.10;;;;;;5046556;28;20028;-40
2022/08/19 04:19:57;;;;;;;0.22;0.22;;;24.60;61.10;;;;;;5045862;28;20063;-42
2022/08/19 04:22:22;;;;;;;0.28;0.25;;;24.60;61.10;;;;;;5046248;28;20021;-42
2022/08/19 04:24:48;;;;;;;0.35;0.35;;;24.60;61.20;;;;;;5047720;28;20503;-42
2022/08/19 04:27:14;;;;;;;0.30;0.30;;;24.60;61.20;;;;;;5045393;28;20049;-40
2022/08/19 04:29:41;;;;;;;0.30;0.30;;;24.60;61.20;;;;;;5046925;28;20052;-40
2022/08/19 04:32:06;;;;;;;0.20;0.20;;;24.60;61.30;;;;;;5043911;28;20024;-39
2022/08/19 04:34:32;;;;;;;0.20;0.20;;;24.60;61.20;;;;;;5047062;28;20392;-42
2022/08/19 04:36:58;;;;;;;0.40;0.40;;;24.60;61.20;;;;;;5047596;28;20067;-39
2022/08/19 04:42:38;;;;;;;0.20;0.20;;;24.60;61.30;;;;;;5046511;28;20025;-40
2022/08/19 04:44:56;;;;;;;0.20;0.20;;;24.60;61.30;;;;;;5047933;28;20055;-40
2022/08/19 04:47:22;;;;;;;0.20;0.20;;;24.60;61.40;;;;;;5042955;28;20460;-40
2022/08/19 04:49:48;;;;;;;0.22;0.22;;;24.60;61.40;;;;;;5045829;28;20048;-45
2022/08/19 04:52:14;;;;;;;0.20;0.20;;;24.60;61.30;;;;;;5046511;28;20059;-40
2022/08/19 04:54:39;;;;;;;0.30;0.30;;;24.60;61.30;;;;;;5045566;28;20092;-41
2022/08/19 04:57:09;;;;;;;0.30;0.20;;;24.60;62.10;;;;;;5046007;28;20021;-41
2022/08/19 04:59:35;;;;;;;0.30;0.30;;;24.60;61.30;;;;;;5045633;28;20684;-42
2022/08/19 05:02:01;;;;;;;0.30;0.30;;;24.60;61.40;;;;;;5047762;28;20056;-41
2022/08/19 05:04:31;;;;;;;0.10;0.10;;;24.60;61.40;;;;;;5045845;28;20119;-40
2022/08/19 05:06:56;;;;;;;0.10;0.10;;;24.60;61.50;;;;;;5044483;28;20017;-39
2022/08/19 05:09:22;;;;;;;1.40;0.30;;;24.60;61.40;;;;;;5046981;28;20564;-40
2022/08/19 05:11:50;;;;;;;0.30;0.30;;;24.60;61.50;;;;;;5027975;28;20032;-42
2022/08/19 05:14:16;;;;;;;0.30;0.30;;;24.60;61.50;;;;;;5046699;28;20021;-40
2022/08/19 05:16:41;;;;;;;0.20;0.20;;;24.60;61.40;;;;;;5046197;28;20460;-40
2022/08/19 05:24:35;;;;;;;0.20;0.20;;;24.60;61.40;;;;;;5048020;28;20403;-40
2022/08/19 05:27:02;;;;;;;0.20;0.20;;;24.60;61.50;;;;;;5046172;28;20060;-42
2022/08/19 05:29:28;;;;;;;0.30;0.30;;;24.60;61.50;;;;;;5046861;28;20408;-39
2022/08/19 05:31:54;;;;;;;0.20;0.20;;;24.60;61.60;;;;;;5045857;28;20021;-39
2022/08/19 05:34:25;;;;;;;0.20;0.20;;;24.60;61.60;;;;;;5044117;28;20079;-40
2022/08/19 05:36:56;;;;;;;0.40;0.20;;;24.60;61.50;;;;;;5045965;28;20468;-40
2022/08/19 05:39:21;;;;;;;0.20;0.20;;;24.50;61.50;;;;;;5042967;28;20520;-40
2022/08/19 05:41:49;;;;;;;0.20;0.20;;;24.50;61.60;;;;;;5046779;28;20036;-40
2022/08/19 05:44:14;;;;;;;0.20;0.20;;;24.60;61.60;;;;;;5046848;28;20480;-44
2022/08/19 05:46:40;;;;;;;0.20;0.20;;;24.60;61.70;;;;;;5045345;28;20081;-40
2022/08/19 05:49:06;;;;;;;0.30;0.30;;;24.60;61.70;;;;;;5030161;28;20063;-42
2022/08/19 05:51:33;;;;;;;0.30;0.30;;;24.60;61.60;;;;;;5045363;28;20052;-38
2022/08/19 05:54:00;;;;;;;0.20;0.20;;;24.50;61.70;;;;;;5043797;28;20034;-40
2022/08/19 05:56:25;;;;;;;0.30;0.20;;;24.50;61.70;;;;;;5045167;28;20409;-40
2022/08/19 05:58:52;;;;;;;0.30;0.30;;;24.60;61.70;;;;;;5045245;28;20496;-40
2022/08/19 06:01:19;;;;;;;0.20;0.20;;;24.50;61.70;;;;;;5047228;28;20033;-38
2022/08/19 06:03:44;;;;;;;0.20;0.20;;;24.60;61.70;;;;;;5042360;28;20040;-39
2022/08/19 06:06:12;;;;;;;0.30;0.30;;;24.60;61.70;;;;;;5045440;28;20032;-40
2022/08/19 06:08:38;;;;;;;0.10;0.10;;;24.50;61.70;;;;;;5027891;28;20017;-40
2022/08/19 06:11:43;;;;;;;0.20;0.20;;;24.60;61.70;;;;;;5047394;28;20388;-42
2022/08/19 06:14:16;;;;;;;0.20;0.20;;;24.50;61.70;;;;;;4976666;28;20145;-40
2022/08/19 06:16:42;;;;;;;0.20;0.20;;;24.50;61.70;;;;;;4975634;28;20065;-40
2022/08/19 06:19:13;;;;;;;0.20;0.20;;;24.50;61.80;;;;;;4976367;28;20557;-41
2022/08/19 06:21:40;;;;;;;0.20;0.20;;;24.50;61.70;;;;;;4975361;28;20038;-40
2022/08/19 06:24:06;;;;;;;0.22;0.17;;;24.50;61.80;;;;;;4978154;28;20027;-40
2022/08/19 06:26:34;;;;;;;0.50;0.30;;;24.50;61.80;;;;;;4979329;28;20065;-40
2022/08/19 06:29:00;;;;;;;0.20;0.20;;;24.50;61.80;;;;;;4975191;28;20100;-40
2022/08/19 06:31:27;;;;;;;0.25;0.20;;;24.50;61.70;;;;;;4974327;28;20030;-40
2022/08/19 06:33:52;;;;;;;0.30;0.30;;;24.60;61.70;;;;;;4979542;28;20122;-40
2022/08/19 06:36:29;;;;;;;0.30;0.30;;;24.50;61.80;;;;;;4979947;28;20122;-45
2022/08/19 06:38:57;;;;;;;0.30;0.30;;;24.50;61.80;;;;;;4980467;28;20038;-40
2022/08/19 06:41:23;;;;;;;0.20;0.20;;;24.50;61.80;;;;;;4979130;28;20066;-40
2022/08/19 06:43:49;;;;;;;0.20;0.20;;;24.50;61.90;;;;;;4977670;28;20118;-39
2022/08/19 06:46:15;;;;;;;0.20;0.20;;;24.50;61.80;;;;;;4979059;28;20050;-39
2022/08/19 06:48:41;;;;;;;0.20;0.20;;;24.60;61.80;;;;;;5034477;28;20424;-40
2022/08/19 06:51:06;;;;;;;0.20;0.20;;;24.50;61.90;;;;;;5047985;28;20117;-40
2022/08/19 06:53:32;;;;;;;0.20;0.20;;;24.50;61.80;;;;;;5047606;28;20064;-40
2022/08/19 06:56:02;;;;;;;0.20;0.20;;;24.50;61.90;;;;;;5047790;28;20029;-39
2022/08/19 06:58:31;;;;;;;0.20;0.20;;;24.50;61.90;;;;;;5048512;28;20771;-40
2022/08/19 07:01:01;;;;;;;0.20;0.20;;;24.50;62.10;;;;;;5047841;28;20034;-40
2022/08/19 07:03:32;;;;;;;0.20;0.20;;;24.50;62.00;;;;;;5049312;28;20357;-42
2022/08/19 07:06:09;;;;;;;0.20;0.20;;;24.50;62.10;;;;;;5049112;28;20027;-40
2022/08/19 07:08:36;;;;;;;0.32;0.30;;;24.50;62.00;;;;;;5048102;28;20025;-40
2022/08/19 07:11:05;;;;;;;0.30;0.30;;;24.50;61.90;;;;;;5047160;28;20577;-40
2022/08/19 07:13:32;;;;;;;0.13;0.13;;;24.50;62.00;;;;;;5048614;28;20029;-40
2022/08/19 07:15:57;;;;;;;0.30;0.30;;;24.50;62.00;;;;;;5045706;28;20032;-41
2022/08/19 07:18:23;;;;;;;0.20;0.20;;;24.60;62.00;;;;;;5047090;28;20122;-40
2022/08/19 07:20:49;;;;;;;0.30;0.30;;;24.50;61.90;;;;;;5049247;28;20025;-40
2022/08/19 07:23:15;;;;;;;0.20;0.20;;;24.50;62.10;;;;;;5050331;28;20094;-40
2022/08/19 07:25:41;;;;;;;0.30;0.30;;;24.50;62.00;;;;;;5047953;28;20040;-39
2022/08/19 07:28:09;;;;;;;0.30;0.30;;;24.60;61.90;;;;;;5048836;28;20027;-41
2022/08/19 07:30:37;;;;;;;0.20;0.20;;;24.50;62.00;;;;;;5047241;28;20123;-39
2022/08/19 07:33:03;;;;;;;0.10;0.10;;;24.50;62.10;;;;;;5046375;28;20056;-40
2022/08/19 07:35:28;;;;;;;0.30;0.30;;;24.50;62.30;;;;;;5047689;28;20483;-40
2022/08/19 07:37:54;;;;;;;0.20;0.20;;;24.50;62.20;;;;;;5047900;28;20028;-41
2022/08/19 07:40:19;;;;;;;0.20;0.20;;;24.50;62.20;;;;;;5048633;28;20112;-40
2022/08/19 07:42:45;;;;;;;0.30;0.30;;;24.50;62.30;;;;;;5047990;28;20094;-40
2022/08/19 07:45:11;;;;;;;0.20;0.20;;;24.50;62.20;;;;;;5048838;28;20696;-40
2022/08/19 07:47:36;;;;;;;0.10;0.10;;;24.50;62.30;;;;;;5048017;28;20017;-40
2022/08/19 07:50:04;;;;;;;0.22;0.22;;;24.50;62.10;;;;;;5046949;28;20026;-39
2022/08/19 07:52:29;;;;;;;0.20;0.20;;;24.50;62.20;;;;;;5047310;28;20033;-40
2022/08/19 07:54:55;;;;;;;0.57;0.40;;;24.60;62.20;;;;;;5046611;28;20484;-41
2022/08/19 07:57:21;;;;;;;0.20;0.20;;;24.50;62.30;;;;;;5047926;28;20040;-40
2022/08/19 07:59:46;;;;;;;0.15;0.15;;;24.50;62.30;;;;;;5047888;28;20115;-41
2022/08/19 08:02:12;;;;;;;0.35;0.30;;;24.50;62.40;;;;;;5047013;28;20032;-40
2022/08/19 08:10:06;;;;;;;;;;;24.50;62.50;;;;;;5048506;28;20043;-40
2022/08/19 08:12:34;;;;;;;0.20;0.20;;;24.50;62.50;;;;;;5046825;28;19925;-40
2022/08/19 08:15:02;;;;;;;0.20;0.20;;;24.50;62.40;;;;;;5046648;28;20565;-40
2022/08/19 08:17:28;;;;;;;0.20;0.20;;;24.50;62.50;;;;;;5047259;28;20024;-40
2022/08/19 08:19:54;;;;;;;0.15;0.10;;;24.50;62.40;;;;;;5047495;28;21099;-40
2022/08/19 08:25:12;;;;;;;0.22;0.17;;;24.50;62.40;;;;;;5044465;28;20123;-40
2022/08/19 08:27:39;;;;;;;0.20;0.20;;;24.50;62.50;;;;;;5046140;28;20017;-41
2022/08/19 08:30:09;;;;;;;0.20;0.20;;;24.50;62.50;;;;;;5048729;28;20559;-40
2022/08/19 08:32:38;;;;;;;0.25;0.25;;;24.50;62.50;;;;;;5046743;28;20041;-40
2022/08/19 08:35:06;;;;;;;0.20;0.20;;;24.50;62.50;;;;;;5045159;28;20112;-42
2022/08/19 08:37:31;;;;;;;0.40;0.40;;;24.50;62.40;;;;;;5048081;28;20029;-41
2022/08/19 08:39:57;;;;;;;0.20;0.20;;;24.60;62.50;;;;;;5047539;28;20067;-40
2022/08/19 08:42:32;;;;;;;0.32;0.32;;;24.50;62.50;;;;;;5046820;28;20055;-40
2022/08/19 08:45:06;;;;;;;0.30;0.30;;;24.50;62.50;;;;;;5014764;28;20111;-40
2022/08/19 08:47:35;;;;;;;0.30;0.30;;;24.60;62.40;;;;;;5030062;28;20101;-40
2022/08/19 08:50:18;;;;;;;0.40;0.30;;;24.60;62.50;;;;;;5030272;28;20048;-42
2022/08/19 08:52:51;;;;;;;0.32;0.30;;;24.60;62.50;;;;;;5014081;28;20419;-40
2022/08/19 08:55:20;;;;;;;0.30;0.22;;;24.60;62.50;;;;;;5029353;28;20035;-39
2022/08/19 08:57:50;;;;;;;0.20;0.20;;;24.50;62.50;;;;;;5029983;28;20044;-40
2022/08/19 09:00:19;;;;;;;0.40;0.40;;;24.60;62.70;;;;;;5047347;28;20013;-41
2022/08/19 09:02:45;;;;;;;0.25;0.25;;;24.60;62.80;;;;;;5041643;28;20033;-41
2022/08/19 09:05:12;;;;;;;0.20;0.20;;;24.60;62.80;;;;;;5047840;28;20029;-41
2022/08/19 09:07:38;;;;;;;0.22;0.22;;;24.60;62.90;;;;;;5047343;28;20029;-40
2022/08/19 09:10:13;;;;;;;0.30;0.30;;;24.60;62.90;;;;;;5044347;28;20037;-40
2022/08/19 09:12:42;;;;;;;0.20;0.20;;;24.50;63.10;;;;;;5028731;28;20040;-40
2022/08/19 09:15:09;;;;;;;0.30;0.30;;;24.60;63.20;;;;;;5044625;28;20021;-40
2022/08/19 09:17:35;;;;;;;0.40;0.30;;;24.50;63.10;;;;;;5012730;28;20013;-40
2022/08/19 09:20:10;;;;;;;0.65;0.55;;;24.60;63.20;;;;;;5044903;28;20075;-42
2022/08/19 09:22:36;;;;;;;0.40;0.40;;;24.50;63.20;;;;;;5045479;28;20032;-39
2022/08/19 09:25:02;;;;;;;0.30;0.30;;;24.50;63.20;;;;;;5046944;28;20865;-40
2022/08/19 09:27:28;;;;;;;0.40;0.40;;;24.50;63.40;;;;;;5045908;28;20013;-43
2022/08/19 09:29:54;;;;;;;0.40;0.40;;;24.50;63.30;;;;;;5046674;28;20552;-40
2022/08/19 09:32:20;;;;;;;0.47;0.47;;;24.50;63.30;;;;;;5046247;28;20029;-39
2022/08/19 09:34:46;;;;;;;0.40;0.30;;;24.50;63.30;;;;;;5045698;28;20112;-43
2022/08/19 09:37:12;;;;;;;0.52;0.52;;;24.50;63.40;;;;;;5045528;28;20112;-40
2022/08/19 09:39:38;;;;;;;0.40;0.40;;;24.60;63.30;;;;;;5041438;28;20121;-42
2022/08/19 09:42:05;;;;;;;0.30;0.30;;;24.50;63.40;;;;;;5045508;28;20492;-39
2022/08/19 09:44:30;;;;;;;0.40;0.40;;;24.50;63.40;;;;;;5044921;28;20120;-40
2022/08/19 09:46:56;;;;;;;0.40;0.40;;;24.60;63.40;;;;;;5047177;28;20100;-40
2022/08/19 09:49:21;;;;;;;0.30;0.30;;;24.60;63.40;;;;;;5046473;28;20415;-40
2022/08/19 09:51:51;;;;;;;0.30;0.30;;;24.50;63.30;;;;;;5045712;28;20044;-40
2022/08/19 09:54:17;;;;;;;0.40;0.40;;;24.60;63.20;;;;;;5046416;28;20021;-39
2022/08/19 09:56:42;;;;;;;0.55;0.38;;;24.50;63.20;;;;;;5046653;28;20033;-40
2022/08/19 09:59:09;;;;;;;0.40;0.40;;;24.50;63.00;;;;;;5045802;28;20039;-39
2022/08/19 10:01:34;;;;;;;0.30;0.30;;;24.60;63.20;;;;;;5046124;28;20579;-42
2022/08/19 10:04:01;;;;;;;0.30;0.30;;;24.60;63.30;;;;;;5045204;28;20100;-40
2022/08/19 10:06:31;;;;;;;0.20;0.20;;;24.50;63.30;;;;;;5046639;28;20033;-40
2022/08/19 10:08:56;;;;;;;0.30;0.30;;;24.50;63.30;;;;;;5048260;28;20029;-40
2022/08/19 10:11:22;;;;;;;0.20;0.20;;;24.60;63.50;;;;;;5050118;28;20036;-40
2022/08/19 10:13:48;;;;;;;0.20;0.20;;;24.60;63.40;;;;;;5050904;28;20033;-40
2022/08/19 10:16:18;;;;;;;0.20;0.20;;;24.60;64.30;;;;;;5050174;28;20029;-42
2022/08/19 10:18:44;;;;;;;0.40;0.40;;;24.60;63.40;;;;;;5049954;28;20094;-40
2022/08/19 10:21:13;;;;;;;0.43;0.43;;;24.60;63.40;;;;;;5050661;28;20029;-42
2022/08/19 10:23:41;;;;;;;0.40;0.40;;;24.60;63.50;;;;;;5048641;28;20056;-40
2022/08/19 10:26:06;;;;;;;0.20;0.20;;;24.60;63.50;;;;;;5049453;28;20500;-42
2022/08/19 10:28:34;;;;;;;0.30;0.30;;;24.50;63.80;;;;;;5048422;28;20159;-42
2022/08/19 10:31:14;;;;;;;0.30;0.30;;;24.60;63.60;;;;;;5047945;28;20025;-42
2022/08/19 10:33:39;;;;;;;0.30;0.30;;;24.60;63.60;;;;;;5049053;28;20021;-40
2022/08/19 10:36:08;;;;;;;0.65;0.40;;;24.60;63.90;;;;;;5047956;28;20410;-39
2022/08/19 10:38:34;;;;;;;0.35;0.30;;;24.50;63.90;;;;;;5047948;28;20033;-40
2022/08/19 10:41:10;;;;;;;0.30;0.28;;;24.60;63.80;;;;;;5047839;28;20025;-40
2022/08/19 10:43:38;;;;;;;0.38;0.38;;;24.60;64.10;;;;;;5047227;28;20017;-40
2022/08/19 10:46:05;;;;;;;0.30;0.30;;;24.60;63.80;;;;;;5049987;28;20040;-40
2022/08/19 10:48:31;;;;;;;0.30;0.30;;;24.50;63.90;;;;;;5048028;28;20025;-42
2022/08/19 10:53:41;;;;;;;0.35;0.30;;;24.60;63.90;;;;;;5047866;28;20392;-40
2022/08/19 10:58:51;;;;;;;0.22;0.22;;;24.60;64.00;;;;;;5048011;28;20032;-39
2022/08/19 11:01:17;;;;;;;0.30;0.30;;;24.60;64.00;;;;;;5047106;28;20033;-40
2022/08/19 11:03:44;;;;;;;0.38;0.38;;;24.60;64.10;;;;;;5047353;28;20025;-40
2022/08/19 11:06:10;;;;;;;0.20;0.20;;;24.60;64.30;;;;;;5046273;28;20030;-39
2022/08/19 11:08:37;;;;;;;0.38;0.30;;;24.60;65.00;;;;;;5046861;28;20426;-39
2022/08/19 11:11:03;;;;;;;0.30;0.30;;;24.50;64.20;;;;;;5048377;28;20036;-40
2022/08/19 11:13:29;;;;;;;0.75;0.28;;;24.60;64.20;;;;;;5047283;28;20120;-39
2022/08/19 11:16:07;;;;;;;0.30;0.30;;;24.60;64.00;;;;;;5046290;28;20023;-40
2022/08/19 11:18:37;;;;;;;0.43;0.40;;;24.60;63.70;;;;;;5045746;28;20048;-40
2022/08/19 11:21:16;;;;;;;0.30;0.30;;;24.60;64.10;;;;;;5047817;28;20029;-40
2022/08/19 11:23:43;;;;;;;0.35;0.30;;;24.60;64.20;;;;;;5048146;28;20531;-40
2022/08/19 11:26:08;;;;;;;0.47;0.47;;;24.60;64.40;;;;;;5050163;28;20060;-41
2022/08/19 11:28:34;;;;;;;0.50;0.30;;;24.60;64.20;;;;;;5047891;28;20059;-39
2022/08/19 11:30:59;;;;;;;0.40;0.40;;;24.60;64.50;;;;;;5046881;28;20400;-39
2022/08/19 11:33:26;;;;;;;0.30;0.30;;;24.60;64.30;;;;;;5046662;28;20040;-40
2022/08/19 11:35:53;;;;;;;0.38;0.28;;;24.60;64.40;;;;;;5047099;28;20029;-40
2022/08/19 11:38:18;;;;;;;0.20;0.20;;;24.60;64.40;;;;;;5048652;28;20116;-42
2022/08/19 11:40:44;;;;;;;0.25;0.22;;;24.60;64.40;;;;;;5047503;28;20128;-40
2022/08/19 11:43:09;;;;;;;0.28;0.28;;;24.60;64.40;;;;;;5047612;28;20495;-40
2022/08/19 11:45:35;;;;;;;0.38;0.25;;;24.60;64.20;;;;;;5048040;28;20392;-41
2022/08/19 11:48:01;;;;;;;0.40;0.40;;;24.60;64.40;;;;;;5031653;28;20032;-40
2022/08/19 11:50:27;;;;;;;0.10;0.10;;;24.60;64.00;;;;;;5028897;28;20561;-42
2022/08/19 11:52:56;;;;;;;0.20;0.20;;;24.60;64.00;;;;;;5045564;28;20033;-41
2022/08/19 11:55:21;;;;;;;0.20;0.20;;;24.60;64.00;;;;;;5049132;28;20025;-40
2022/08/19 11:57:47;;;;;;;0.28;0.28;;;24.60;64.00;;;;;;5047051;28;20029;-42
2022/08/19 12:00:13;;;;;;;0.45;0.30;;;24.60;64.10;;;;;;5047104;28;20017;-40
2022/08/19 12:02:39;;;;;;;0.30;0.30;;;24.60;64.20;;;;;;5046454;28;20029;-40
2022/08/19 12:05:05;;;;;;;0.30;0.28;;;24.60;64.20;;;;;;5046384;28;20074;-40
2022/08/19 12:07:32;;;;;;;0.40;0.40;;;24.60;64.40;;;;;;5048729;28;20029;-40
2022/08/19 12:09:59;;;;;;;0.68;0.40;;;24.60;64.00;;;;;;5048614;28;20021;-40
2022/08/19 12:12:26;;;;;;;0.30;0.30;;;24.60;64.10;;;;;;5049920;28;20021;-40
2022/08/19 12:14:56;;;;;;;0.20;0.20;;;24.60;64.70;;;;;;5047474;28;20030;-40
2022/08/19 12:17:23;;;;;;;0.30;0.30;;;24.60;64.80;;;;;;5045714;28;20062;-42
2022/08/19 12:19:49;;;;;;;0.30;0.30;;;24.70;64.60;;;;;;5046542;28;20056;-40
2022/08/19 12:22:14;;;;;;;0.30;0.30;;;24.60;64.50;;;;;;5047063;28;20071;-42
2022/08/19 12:24:40;;;;;;;0.28;0.28;;;24.60;64.70;;;;;;5046626;28;20032;-40
2022/08/19 12:27:06;;;;;;;0.20;0.20;;;24.60;64.60;;;;;;5046883;28;20036;-40
2022/08/19 12:29:32;;;;;;;0.40;0.20;;;24.60;64.60;;;;;;5047526;28;20028;-40
2022/08/19 12:32:01;;;;;;;0.30;0.30;;;24.60;64.80;;;;;;5045973;28;20404;-40
2022/08/19 12:34:29;;;;;;;0.10;0.10;;;24.60;64.60;;;;;;5047440;28;20040;-39
2022/08/19 12:36:56;;;;;;;0.20;0.20;;;24.60;64.60;;;;;;5047225;28;20033;-42
2022/08/19 12:39:22;;;;;;;0.28;0.25;;;24.60;64.70;;;;;;5047451;28;20042;-40
2022/08/19 12:41:48;;;;;;;0.38;0.30;;;24.70;65.00;;;;;;5045411;28;20507;-40
2022/08/19 12:44:14;;;;;;;0.20;0.20;;;24.60;65.20;;;;;;5044211;28;20025;-41
2022/08/19 12:46:41;;;;;;;1.27;0.35;;;24.70;65.20;;;;;;5045392;28;20107;-39
2022/08/19 12:49:06;;;;;;;0.20;0.20;;;24.70;65.50;;;;;;5044506;28;20453;-44
2022/08/19 12:51:32;;;;;;;0.32;0.32;;;24.60;66.10;;;;;;5047052;28;20040;-39
2022/08/19 12:53:59;;;;;;;0.20;0.20;;;24.60;65.60;;;;;;5046021;28;20032;-41
2022/08/19 12:56:24;;;;;;;0.30;0.30;;;24.60;65.20;;;;;;5046497;28;20048;-40
2022/08/19 12:58:50;;;;;;;0.20;0.20;;;24.60;65.50;;;;;;5047685;28;20970;-40
2022/08/19 13:01:16;;;;;;;0.20;0.20;;;24.70;65.00;;;;;;5047196;28;20116;-42
2022/08/19 13:03:42;;;;;;;0.80;0.20;;;24.60;65.10;;;;;;5045135;28;20104;-39
2022/08/19 13:06:08;;;;;;;0.20;0.20;;;24.60;64.90;;;;;;5044493;28;20033;-42
2022/08/19 13:08:34;;;;;;;0.20;0.20;;;24.60;65.10;;;;;;5046764;28;20029;-40
2022/08/19 13:11:17;;;;;;;0.10;0.10;;;24.60;65.10;;;;;;5047255;28;20510;-40